Time;durP1;ratioP1;P1;durP2;ratioP2;P2;SDS_P1;SDS_P2;PMS_P1;PMS_P2;Temp;Humidity;BMP_temperature;BMP_pressure;BME280_temperature;BME280_humidity;BME280_pressure;Samples;Min_cycle;Max_cycle;Signal;HPM_P1;HPM_P2
2022/01/15 00:01:16;;;;;;;30.93;20.40;;;0.40;99.90;;;;;;5088422;28;20192;-90
2022/01/15 00:03:43;;;;;;;33.53;20.23;;;0.40;99.90;;;;;;5105217;27;20213;-90
2022/01/15 00:06:09;;;;;;;43.10;20.57;;;0.50;99.90;;;;;;5093934;28;20276;-89
2022/01/15 00:08:34;;;;;;;34.00;19.47;;;0.50;99.90;;;;;;5060282;28;20298;-89
2022/01/15 00:11:00;;;;;;;54.53;20.80;;;0.30;99.90;;;;;;5069342;28;20211;-89
2022/01/15 00:13:30;;;;;;;33.60;20.50;;;0.20;99.90;;;;;;5080448;28;20211;-89
2022/01/15 00:16:10;;;;;;;27.33;18.53;;;0.10;99.90;;;;;;5092066;28;20196;-89
2022/01/15 00:18:43;;;;;;;35.93;19.37;;;0.10;99.90;;;;;;5093594;28;20190;-89
2022/01/15 00:21:10;;;;;;;36.47;20.17;;;0.00;99.90;;;;;;5095978;28;20218;-89
2022/01/15 00:23:36;;;;;;;29.80;18.90;;;0.00;99.90;;;;;;5094390;28;20373;-89
2022/01/15 00:26:02;;;;;;;36.10;18.77;;;0.00;99.90;;;;;;5079141;28;20195;-88
2022/01/15 00:28:27;;;;;;;44.17;18.33;;;0.00;99.90;;;;;;5066327;28;20218;-90
2022/01/15 00:30:53;;;;;;;35.53;18.93;;;0.00;99.90;;;;;;5081659;28;20179;-88
2022/01/15 00:33:19;;;;;;;38.13;18.60;;;-0.10;99.90;;;;;;5080274;28;20207;-88
2022/01/15 00:35:44;;;;;;;32.53;17.87;;;-0.20;99.90;;;;;;5076928;28;20669;-88
2022/01/15 00:38:10;;;;;;;30.70;19.10;;;-0.20;99.90;;;;;;5070178;28;20193;-89
2022/01/15 00:40:36;;;;;;;27.77;18.47;;;-0.20;99.90;;;;;;5080293;28;20601;-88
2022/01/15 00:43:02;;;;;;;32.37;19.47;;;-0.10;99.90;;;;;;5092644;28;20225;-88
2022/01/15 00:45:32;;;;;;;27.27;18.13;;;0.00;99.90;;;;;;5076638;28;20267;-88
2022/01/15 00:47:58;;;;;;;27.40;17.50;;;0.00;99.90;;;;;;5093844;27;20194;-90
2022/01/15 00:50:24;;;;;;;27.13;17.07;;;0.00;99.90;;;;;;5100845;28;20251;-89
2022/01/15 00:52:50;;;;;;;26.00;18.13;;;0.00;99.90;;;;;;5076533;28;20220;-90
2022/01/15 00:55:18;;;;;;;24.73;15.90;;;0.00;99.90;;;;;;5088549;27;20183;-88
2022/01/15 00:57:44;;;;;;;24.60;17.43;;;0.00;99.90;;;;;;5098311;27;20179;-91
2022/01/15 01:00:13;;;;;;;22.93;16.63;;;-0.10;99.90;;;;;;5104403;27;20256;-89
2022/01/15 01:02:39;;;;;;;31.17;17.03;;;-0.10;99.90;;;;;;5086439;28;20206;-89
2022/01/15 01:05:06;;;;;;;27.90;17.53;;;0.00;99.90;;;;;;5097724;28;20183;-89
2022/01/15 01:07:32;;;;;;;28.97;16.33;;;-0.10;99.90;;;;;;5082290;28;20247;-89
2022/01/15 01:23:04;;;;;;;25.70;15.93;;;-0.30;99.90;;;;;;5077518;28;20652;-89
2022/01/15 01:25:37;;;;;;;26.00;15.77;;;-0.40;99.90;;;;;;5045849;28;20215;-89
2022/01/15 01:28:18;;;;;;;21.20;15.60;;;-0.40;99.90;;;;;;5069644;28;20196;-90
2022/01/15 01:30:54;;;;;;;26.50;14.53;;;-0.40;99.90;;;;;;5061080;28;20192;-89
2022/01/15 01:36:02;;;;;;;22.50;15.40;;;-0.50;99.90;;;;;;5074843;28;20462;-89
2022/01/15 01:38:35;;;;;;;23.90;15.57;;;-0.40;99.90;;;;;;5060202;28;20205;-89
2022/01/15 01:41:04;;;;;;;26.53;16.47;;;-0.50;99.90;;;;;;5058377;28;20195;-88
2022/01/15 01:46:17;;;;;;;24.00;15.97;;;-0.60;99.90;;;;;;5080913;28;20184;-89
2022/01/15 01:48:44;;;;;;;22.10;15.63;;;-0.50;99.90;;;;;;5073785;28;20219;-89
2022/01/15 01:51:21;;;;;;;21.83;16.33;;;-0.60;99.90;;;;;;5075594;28;20240;-89
2022/01/15 01:53:47;;;;;;;25.97;16.13;;;-0.50;99.90;;;;;;5057300;28;20698;-88
2022/01/15 01:56:13;;;;;;;32.80;15.77;;;-0.60;99.90;;;;;;5047138;28;20183;-89
2022/01/15 01:58:38;;;;;;;27.73;15.80;;;-0.60;99.90;;;;;;5074970;28;20266;-89
2022/01/15 02:01:04;;;;;;;23.70;15.23;;;-0.70;99.90;;;;;;5058857;28;20200;-88
2022/01/15 02:03:30;;;;;;;31.47;15.67;;;-0.60;99.90;;;;;;5078832;28;20220;-89
2022/01/15 02:05:55;;;;;;;22.73;14.70;;;-0.70;99.90;;;;;;5069107;28;20195;-91
2022/01/15 02:08:21;;;;;;;32.13;14.60;;;-0.70;99.90;;;;;;5048055;28;20212;-88
2022/01/15 02:10:47;;;;;;;23.53;15.83;;;-0.80;99.90;;;;;;5055172;28;20199;-88
2022/01/15 02:13:13;;;;;;;35.03;17.20;;;-0.90;99.90;;;;;;5096344;28;20215;-88
2022/01/15 02:15:39;;;;;;;29.43;16.23;;;-0.80;99.90;;;;;;5079077;28;20274;-88
2022/01/15 02:18:05;;;;;;;26.27;17.03;;;-0.70;99.90;;;;;;5098304;28;20191;-88
2022/01/15 02:25:59;;;;;;;28.33;16.70;;;-0.60;99.90;;;;;;5092637;28;20206;-89
2022/01/15 02:28:30;;;;;;;33.00;16.53;;;-0.60;99.90;;;;;;5097435;28;20203;-90
2022/01/15 02:30:58;;;;;;;29.97;16.40;;;-0.70;99.90;;;;;;5093610;28;20183;-89
2022/01/15 02:33:25;;;;;;;31.13;17.30;;;-0.70;99.90;;;;;;5089864;28;20646;-88
2022/01/15 02:35:52;;;;;;;24.60;17.07;;;-0.70;99.90;;;;;;5089644;28;20247;-88
2022/01/15 02:38:18;;;;;;;34.10;17.90;;;-0.60;99.90;;;;;;5092961;28;20444;-89
2022/01/15 02:40:44;;;;;;;25.27;15.73;;;-0.70;99.90;;;;;;5066244;28;20202;-89
2022/01/15 02:43:14;;;;;;;26.83;17.03;;;-0.70;99.90;;;;;;5073503;28;20264;-89
2022/01/15 02:45:46;;;;;;;27.60;16.77;;;-0.60;99.90;;;;;;5070251;28;20707;-89
2022/01/15 02:48:16;;;;;;;34.60;16.63;;;-0.60;99.90;;;;;;5093751;28;20215;-89
2022/01/15 02:50:43;;;;;;;23.57;15.63;;;-0.60;99.90;;;;;;5079426;28;20191;-89
2022/01/15 02:53:10;;;;;;;28.17;17.47;;;-0.60;99.90;;;;;;5079763;28;20286;-89
2022/01/15 02:55:44;;;;;;;31.37;17.63;;;-0.60;99.90;;;;;;5075313;28;20274;-90
2022/01/15 02:58:10;;;;;;;23.27;16.60;;;-0.50;99.90;;;;;;5081562;28;20584;-89
2022/01/15 03:00:36;;;;;;;28.50;16.60;;;-0.60;99.90;;;;;;5090155;28;21749;-89
2022/01/15 03:03:03;;;;;;;24.50;17.07;;;-0.50;99.90;;;;;;5086409;28;20740;-89
2022/01/15 03:05:28;;;;;;;23.93;17.40;;;-0.40;99.90;;;;;;5062754;28;20222;-89
2022/01/15 03:07:54;;;;;;;28.20;18.00;;;-0.60;99.90;;;;;;5094939;28;20214;-89
2022/01/15 03:10:20;;;;;;;30.50;16.87;;;-0.60;99.90;;;;;;5081912;28;20199;-89
2022/01/15 03:12:46;;;;;;;44.30;18.03;;;-0.70;99.90;;;;;;5096446;28;20246;-89
2022/01/15 03:15:17;;;;;;;28.10;17.07;;;-0.70;99.90;;;;;;5095534;28;20198;-89
2022/01/15 03:17:43;;;;;;;25.67;16.97;;;-0.80;99.90;;;;;;5075342;28;20193;-89
2022/01/15 03:20:10;;;;;;;30.20;18.87;;;-0.80;99.90;;;;;;5088572;28;20196;-89
2022/01/15 03:22:36;;;;;;;27.30;16.57;;;-0.80;99.90;;;;;;5074909;28;20259;-89
2022/01/15 03:25:02;;;;;;;38.23;17.97;;;-0.70;99.90;;;;;;5108907;28;20191;-90
2022/01/15 03:27:28;;;;;;;25.57;16.80;;;-0.80;99.90;;;;;;5114515;27;20197;-90
2022/01/15 03:29:54;;;;;;;30.70;19.27;;;-0.80;99.90;;;;;;5088709;28;20192;-89
2022/01/15 03:32:20;;;;;;;31.13;18.40;;;-0.70;99.90;;;;;;5093548;28;20279;-91
2022/01/15 03:34:46;;;;;;;26.77;18.43;;;-0.70;99.90;;;;;;5113673;27;20201;-90
2022/01/15 03:37:12;;;;;;;28.87;17.37;;;-0.70;99.90;;;;;;5092694;27;20184;-89
2022/01/15 03:39:38;;;;;;;28.97;18.57;;;-0.70;99.90;;;;;;5095625;28;20190;-89
2022/01/15 03:42:11;;;;;;;37.13;19.37;;;-0.60;99.90;;;;;;5087152;28;20187;-90
2022/01/15 03:44:43;;;;;;;25.83;18.63;;;-0.60;99.90;;;;;;5092600;27;20198;-90
2022/01/15 03:47:09;;;;;;;27.87;18.60;;;-0.60;99.90;;;;;;5101761;27;20198;-89
2022/01/15 03:49:36;;;;;;;32.87;19.80;;;-0.50;99.90;;;;;;5096161;28;20190;-90
2022/01/15 03:52:03;;;;;;;33.93;19.20;;;-0.50;99.90;;;;;;5093799;28;20282;-90
2022/01/15 03:54:29;;;;;;;28.90;19.07;;;-0.50;99.90;;;;;;5090149;28;20205;-89
2022/01/15 03:56:55;;;;;;;32.23;19.50;;;-0.50;99.90;;;;;;5096293;28;20246;-90
2022/01/15 03:59:21;;;;;;;43.23;18.10;;;-0.60;99.90;;;;;;5087421;28;20183;-90
2022/01/15 04:01:46;;;;;;;32.57;19.57;;;-0.60;99.90;;;;;;5083325;28;20180;-90
2022/01/15 04:04:12;;;;;;;32.83;19.13;;;-0.60;99.90;;;;;;5067565;28;20227;-89
2022/01/15 04:06:38;;;;;;;36.10;19.13;;;-0.70;99.90;;;;;;5072600;28;20209;-90
2022/01/15 04:09:05;;;;;;;34.13;20.50;;;-0.70;99.90;;;;;;5099365;28;20207;-90
2022/01/15 04:11:31;;;;;;;29.83;20.30;;;-0.60;99.90;;;;;;5077617;28;20199;-89
2022/01/15 04:13:57;;;;;;;29.13;19.77;;;-0.60;99.90;;;;;;5080004;28;20211;-89
2022/01/15 04:16:22;;;;;;;29.87;20.30;;;-0.70;99.90;;;;;;5101000;28;20187;-89
2022/01/15 04:18:48;;;;;;;25.47;18.97;;;-0.60;99.90;;;;;;5083187;28;20273;-88
2022/01/15 04:21:14;;;;;;;32.93;19.40;;;-0.60;99.90;;;;;;5075330;28;20195;-88
2022/01/15 04:23:40;;;;;;;29.17;20.00;;;-0.50;99.90;;;;;;5079390;28;20206;-90
2022/01/15 04:26:06;;;;;;;30.13;18.90;;;-0.40;99.90;;;;;;5063552;28;20557;-90
2022/01/15 04:28:33;;;;;;;29.50;19.83;;;-0.40;99.90;;;;;;5100718;28;20218;-89
2022/01/15 04:31:07;;;;;;;31.33;19.23;;;-0.50;99.90;;;;;;5099172;28;20722;-90
2022/01/15 04:33:38;;;;;;;29.37;19.87;;;-0.40;99.90;;;;;;5072750;28;20217;-89
2022/01/15 04:36:06;;;;;;;27.87;19.10;;;-0.50;99.90;;;;;;5081221;28;20213;-90
2022/01/15 04:38:36;;;;;;;26.80;19.77;;;-0.50;99.90;;;;;;5099317;28;20186;-90
2022/01/15 04:41:03;;;;;;;31.33;19.27;;;-0.50;99.90;;;;;;5074819;28;20191;-90
2022/01/15 04:43:28;;;;;;;28.73;19.17;;;-0.60;99.90;;;;;;5102115;28;20246;-90
2022/01/15 04:45:54;;;;;;;30.37;20.77;;;-0.50;99.90;;;;;;5102777;28;20190;-90
2022/01/15 04:48:20;;;;;;;29.07;20.53;;;-0.60;99.90;;;;;;5099868;28;20274;-90
2022/01/15 04:50:46;;;;;;;30.00;20.87;;;-0.50;99.90;;;;;;5095052;28;20281;-91
2022/01/15 04:53:12;;;;;;;28.47;18.57;;;-0.60;99.90;;;;;;5099866;28;20274;-90
2022/01/15 04:55:39;;;;;;;26.93;19.30;;;-0.60;99.90;;;;;;5081371;28;20674;-90
2022/01/15 04:58:07;;;;;;;27.23;18.57;;;-0.60;99.90;;;;;;5067734;28;20191;-90
2022/01/15 05:00:34;;;;;;;29.13;18.83;;;-0.60;99.90;;;;;;5082664;28;20190;-91
2022/01/15 05:03:00;;;;;;;29.33;19.73;;;-0.50;99.90;;;;;;5099538;28;20217;-90
2022/01/15 05:05:27;;;;;;;26.23;18.97;;;-0.40;99.90;;;;;;5073472;28;20199;-90
2022/01/15 05:07:54;;;;;;;26.37;18.83;;;-0.40;99.90;;;;;;5099858;28;20230;-90
2022/01/15 05:10:23;;;;;;;26.43;17.43;;;-0.40;99.90;;;;;;5077646;28;20247;-90
2022/01/15 05:12:50;;;;;;;27.57;17.40;;;-0.40;99.90;;;;;;5098021;28;20214;-91
2022/01/15 05:15:18;;;;;;;26.90;18.63;;;-0.40;99.90;;;;;;5097139;28;20613;-90
2022/01/15 05:17:45;;;;;;;25.80;17.93;;;-0.50;99.90;;;;;;5099947;28;20184;-91
2022/01/15 05:20:12;;;;;;;25.30;18.80;;;-0.60;99.90;;;;;;5100326;28;20194;-91
2022/01/15 05:22:38;;;;;;;25.50;16.87;;;-0.50;99.90;;;;;;5100399;28;20209;-91
2022/01/15 05:25:07;;;;;;;23.57;17.20;;;-0.60;99.90;;;;;;5086446;28;20186;-91
2022/01/15 05:27:36;;;;;;;26.80;18.53;;;-0.70;99.90;;;;;;5085851;28;20368;-90
2022/01/15 05:30:05;;;;;;;26.07;17.53;;;-0.70;99.90;;;;;;5084463;28;20657;-90
2022/01/15 05:32:30;;;;;;;25.40;17.73;;;-0.80;99.90;;;;;;5085633;28;20221;-91
2022/01/15 05:34:57;;;;;;;24.57;17.63;;;-0.80;99.90;;;;;;5072791;28;20179;-91
2022/01/15 05:37:24;;;;;;;25.87;17.57;;;-0.80;99.90;;;;;;5095665;28;20741;-90
2022/01/15 05:39:50;;;;;;;23.70;17.80;;;-0.70;99.90;;;;;;5097142;28;20214;-90
2022/01/15 05:42:16;;;;;;;25.47;17.97;;;-0.80;99.90;;;;;;5084094;28;20221;-91
2022/01/15 05:44:42;;;;;;;23.07;17.10;;;-0.70;99.90;;;;;;5084182;28;20205;-90
2022/01/15 05:47:08;;;;;;;25.90;17.87;;;-0.70;99.90;;;;;;5081097;28;20230;-89
2022/01/15 05:49:34;;;;;;;25.97;18.07;;;-0.70;99.90;;;;;;5059074;28;20188;-90
2022/01/15 05:52:00;;;;;;;22.97;18.00;;;-0.70;99.90;;;;;;5069436;28;20191;-90
2022/01/15 05:54:26;;;;;;;23.53;18.57;;;-0.80;99.90;;;;;;5082737;28;20198;-90
2022/01/15 05:56:52;;;;;;;24.53;17.57;;;-0.70;99.90;;;;;;5099108;28;20195;-91
2022/01/15 05:59:17;;;;;;;23.87;17.27;;;-0.70;99.90;;;;;;5080270;28;20184;-92
2022/01/15 06:01:43;;;;;;;26.13;16.93;;;-0.60;99.90;;;;;;5068501;28;20213;-91
2022/01/15 06:04:09;;;;;;;23.77;18.03;;;-0.70;99.90;;;;;;5060696;28;20256;-89
2022/01/15 06:06:35;;;;;;;24.70;17.97;;;-0.70;99.90;;;;;;5084774;28;20191;-90
2022/01/15 06:09:03;;;;;;;26.63;18.73;;;-0.70;99.90;;;;;;5080048;28;20213;-89
2022/01/15 06:11:29;;;;;;;28.00;18.57;;;-0.80;99.90;;;;;;5082760;28;20214;-89
2022/01/15 06:13:54;;;;;;;23.13;18.47;;;-0.90;99.90;;;;;;5062878;28;20207;-89
2022/01/15 06:16:21;;;;;;;22.40;17.90;;;-0.90;99.90;;;;;;5104717;28;20255;-90
2022/01/15 06:18:46;;;;;;;26.73;18.17;;;-0.90;99.90;;;;;;5103483;28;20232;-90
2022/01/15 06:21:12;;;;;;;28.23;18.00;;;-0.90;99.90;;;;;;5115425;27;20182;-91
2022/01/15 06:23:38;;;;;;;28.23;20.07;;;-0.90;99.90;;;;;;5097117;28;20291;-90
2022/01/15 06:26:04;;;;;;;28.90;21.47;;;-0.90;99.90;;;;;;5086634;28;20194;-90
2022/01/15 06:28:29;;;;;;;26.47;19.33;;;-0.90;99.90;;;;;;5102001;27;20245;-91
2022/01/15 06:30:55;;;;;;;32.67;24.13;;;-0.90;99.90;;;;;;5083337;27;20179;-92
2022/01/15 06:33:21;;;;;;;32.33;19.80;;;-0.90;99.90;;;;;;5104467;27;20203;-90
2022/01/15 06:35:46;;;;;;;31.03;20.83;;;-0.90;99.90;;;;;;5099796;28;20255;-91
2022/01/15 06:38:12;;;;;;;25.80;18.27;;;-0.80;99.90;;;;;;5068048;28;20213;-90
2022/01/15 06:40:38;;;;;;;24.60;17.80;;;-0.80;99.90;;;;;;5059516;28;20191;-90
2022/01/15 06:43:05;;;;;;;25.43;18.27;;;-0.80;99.90;;;;;;5077720;28;20261;-90
2022/01/15 06:45:32;;;;;;;28.17;17.90;;;-0.80;99.90;;;;;;5105233;28;20239;-90
2022/01/15 06:47:59;;;;;;;25.80;17.20;;;-0.80;99.90;;;;;;5110916;27;20202;-89
2022/01/15 06:50:27;;;;;;;27.83;17.70;;;-0.80;99.90;;;;;;5109261;28;20187;-90
2022/01/15 06:52:54;;;;;;;23.50;17.83;;;-0.80;99.90;;;;;;5081356;28;20213;-90
2022/01/15 06:55:23;;;;;;;24.47;17.80;;;-0.70;99.90;;;;;;5051768;28;20686;-89
2022/01/15 06:57:49;;;;;;;25.77;19.33;;;-0.70;99.90;;;;;;5078358;28;20199;-89
2022/01/15 07:00:15;;;;;;;26.43;19.40;;;-0.60;99.90;;;;;;5076798;28;20205;-89
2022/01/15 07:02:41;;;;;;;25.63;17.00;;;-0.60;99.90;;;;;;5096468;28;20219;-90
2022/01/15 07:05:08;;;;;;;28.03;19.47;;;-0.60;99.90;;;;;;5096925;28;20259;-89
2022/01/15 07:07:35;;;;;;;26.47;18.17;;;-0.60;99.90;;;;;;5099465;28;20210;-88
2022/01/15 07:10:01;;;;;;;27.30;19.13;;;-0.50;99.90;;;;;;5082305;28;20175;-90
2022/01/15 07:12:27;;;;;;;29.30;19.20;;;-0.50;99.90;;;;;;5081116;28;20213;-88
2022/01/15 07:14:52;;;;;;;29.57;20.00;;;-0.50;99.90;;;;;;5076528;28;20203;-89
2022/01/15 07:17:18;;;;;;;26.00;18.07;;;-0.60;99.90;;;;;;5078040;28;20282;-89
2022/01/15 07:19:44;;;;;;;27.80;19.37;;;-0.60;99.90;;;;;;5067244;28;20202;-91
2022/01/15 07:22:10;;;;;;;25.87;18.47;;;-0.50;99.90;;;;;;5096072;28;20195;-90
2022/01/15 07:24:36;;;;;;;29.53;18.20;;;-0.50;99.90;;;;;;5097044;28;20210;-90
2022/01/15 07:27:03;;;;;;;26.97;19.23;;;-0.60;99.90;;;;;;5062510;28;20190;-88
2022/01/15 07:29:30;;;;;;;31.03;18.63;;;-0.50;99.90;;;;;;5081435;28;20636;-89
2022/01/15 07:31:59;;;;;;;25.40;20.03;;;-0.50;99.90;;;;;;5077270;28;20206;-91
2022/01/15 07:34:25;;;;;;;27.50;18.47;;;-0.50;99.90;;;;;;5078460;28;20654;-91
2022/01/15 07:36:53;;;;;;;28.20;19.17;;;-0.40;99.90;;;;;;5095071;28;20191;-90
2022/01/15 07:39:21;;;;;;;26.10;16.73;;;-0.50;99.90;;;;;;5053199;28;20685;-89
2022/01/15 07:41:47;;;;;;;27.53;18.63;;;-0.40;99.90;;;;;;5066159;28;20195;-90
2022/01/15 07:44:13;;;;;;;25.30;17.73;;;-0.50;99.90;;;;;;5095949;28;20210;-90
2022/01/15 07:46:39;;;;;;;31.60;20.23;;;-0.50;99.90;;;;;;5061346;28;20599;-90
2022/01/15 07:49:04;;;;;;;29.93;18.23;;;-0.50;99.90;;;;;;5093810;28;20218;-90
2022/01/15 07:51:30;;;;;;;32.27;18.77;;;-0.50;99.90;;;;;;5077898;28;20220;-90
2022/01/15 07:53:56;;;;;;;26.93;18.40;;;-0.50;99.90;;;;;;5101005;28;20846;-89
2022/01/15 07:56:23;;;;;;;27.57;18.60;;;-0.50;99.90;;;;;;5080444;28;20195;-89
2022/01/15 07:58:48;;;;;;;28.07;18.53;;;-0.40;99.90;;;;;;5076585;28;20240;-90
2022/01/15 08:01:16;;;;;;;28.60;20.00;;;-0.50;99.90;;;;;;5061712;28;20203;-90
2022/01/15 08:03:42;;;;;;;25.53;18.20;;;-0.50;99.90;;;;;;5083981;28;20206;-90
2022/01/15 08:06:09;;;;;;;26.50;18.67;;;-0.30;99.90;;;;;;5086695;28;20202;-91
2022/01/15 08:08:35;;;;;;;30.77;20.00;;;-0.20;99.90;;;;;;5066765;28;20256;-89
2022/01/15 08:11:02;;;;;;;35.00;22.17;;;-0.20;99.90;;;;;;5098629;28;20195;-89
2022/01/15 08:13:30;;;;;;;45.67;31.53;;;-0.20;99.90;;;;;;5065171;28;20199;-89
2022/01/15 08:15:57;;;;;;;30.80;21.83;;;-0.20;99.90;;;;;;5078055;28;20205;-89
2022/01/15 08:18:24;;;;;;;30.33;20.57;;;-0.20;99.90;;;;;;5095522;28;20214;-89
2022/01/15 08:20:50;;;;;;;28.87;19.83;;;-0.10;99.90;;;;;;5078702;28;20186;-88
2022/01/15 08:23:16;;;;;;;25.77;18.93;;;0.00;99.90;;;;;;5098079;28;20236;-89
2022/01/15 08:25:42;;;;;;;25.83;17.93;;;0.00;99.90;;;;;;5054950;28;20207;-88
2022/01/15 08:28:08;;;;;;;26.30;19.37;;;0.00;99.90;;;;;;5066859;28;20218;-88
2022/01/15 08:30:34;;;;;;;29.67;18.53;;;0.10;99.90;;;;;;5072640;28;20175;-90
2022/01/15 08:33:00;;;;;;;22.97;17.37;;;0.10;99.90;;;;;;5089639;28;20229;-91
2022/01/15 08:35:26;;;;;;;24.37;17.97;;;0.10;99.90;;;;;;5074614;28;20180;-90
2022/01/15 08:37:54;;;;;;;25.03;18.03;;;0.10;99.90;;;;;;5087831;28;20209;-89
2022/01/15 08:40:20;;;;;;;26.07;18.37;;;0.10;99.90;;;;;;5087084;28;20613;-89
2022/01/15 08:42:46;;;;;;;23.70;18.77;;;0.10;99.90;;;;;;5106029;28;20214;-89
2022/01/15 08:45:14;;;;;;;26.97;19.73;;;0.20;99.90;;;;;;5065597;28;20193;-90
2022/01/15 08:47:40;;;;;;;26.10;20.10;;;0.10;99.90;;;;;;5100132;28;20209;-89
2022/01/15 08:50:07;;;;;;;24.03;18.80;;;0.20;99.90;;;;;;5085857;28;20182;-93
2022/01/15 08:52:34;;;;;;;28.73;21.37;;;0.10;99.90;;;;;;5084882;28;20198;-88
2022/01/15 08:55:01;;;;;;;34.87;25.33;;;0.10;99.90;;;;;;5086808;28;20175;-91
2022/01/15 08:57:26;;;;;;;34.27;26.77;;;0.10;99.90;;;;;;5053496;28;20183;-90
2022/01/15 08:59:52;;;;;;;33.27;24.97;;;0.10;99.90;;;;;;5054096;28;20208;-90
2022/01/15 09:02:18;;;;;;;27.83;21.80;;;0.20;99.90;;;;;;5069448;28;20214;-89
2022/01/15 09:04:44;;;;;;;32.33;23.90;;;0.20;99.90;;;;;;5097400;28;20181;-90
2022/01/15 09:07:10;;;;;;;24.33;19.13;;;0.20;99.90;;;;;;5088320;27;20191;-96
2022/01/15 09:09:36;;;;;;;28.73;21.53;;;0.30;99.90;;;;;;5098670;28;20213;-92
2022/01/15 09:12:02;;;;;;;34.37;22.93;;;0.20;99.90;;;;;;5105953;28;20218;-91
2022/01/15 09:14:29;;;;;;;35.63;24.43;;;0.20;99.90;;;;;;5098501;28;20192;-90
2022/01/15 09:16:54;;;;;;;32.27;22.17;;;0.30;99.90;;;;;;5082528;28;20247;-96
2022/01/15 09:19:20;;;;;;;44.87;28.53;;;0.40;99.90;;;;;;5062377;28;20183;-91
2022/01/15 09:21:47;;;;;;;27.07;19.13;;;0.30;99.90;;;;;;5071116;28;20294;-94
2022/01/15 09:24:13;;;;;;;27.70;20.30;;;0.40;99.90;;;;;;5065510;28;20221;-89
2022/01/15 09:27:00;;;;;;;26.00;19.33;;;0.30;99.90;;;;;;5087998;28;20214;-89
2022/01/15 09:32:10;;;;;;;26.90;19.27;;;0.40;99.90;;;;;;5083498;28;20205;-89
2022/01/15 09:34:37;;;;;;;27.07;18.83;;;0.40;99.90;;;;;;5067803;28;20239;-89
2022/01/15 09:37:04;;;;;;;25.27;19.03;;;0.40;99.90;;;;;;5083805;28;20195;-90
2022/01/15 09:39:31;;;;;;;25.50;18.20;;;0.50;99.90;;;;;;5053496;28;20286;-89
2022/01/15 09:41:56;;;;;;;25.57;19.13;;;0.60;99.90;;;;;;5070472;28;20191;-90
2022/01/15 09:44:24;;;;;;;24.77;19.27;;;0.60;99.90;;;;;;5047965;28;20212;-89
2022/01/15 09:46:51;;;;;;;31.13;20.37;;;0.60;99.90;;;;;;5067088;28;20209;-89
2022/01/15 09:49:18;;;;;;;28.93;20.27;;;0.60;99.90;;;;;;5099333;28;20207;-89
2022/01/15 09:51:46;;;;;;;25.30;18.33;;;0.60;99.90;;;;;;5068117;28;20188;-88
2022/01/15 09:54:13;;;;;;;26.53;20.53;;;0.60;99.90;;;;;;5052710;28;20219;-90
2022/01/15 09:56:39;;;;;;;29.40;20.30;;;0.70;99.90;;;;;;5079470;28;20183;-91
2022/01/15 09:59:04;;;;;;;30.10;20.70;;;0.70;99.90;;;;;;5064834;28;20198;-90
2022/01/15 10:01:31;;;;;;;25.37;19.33;;;0.80;99.90;;;;;;5072846;28;20191;-91
2022/01/15 10:03:58;;;;;;;28.60;20.67;;;0.80;99.90;;;;;;5069114;28;20211;-89
2022/01/15 10:06:24;;;;;;;27.40;20.93;;;0.80;99.90;;;;;;5078981;28;20195;-90
2022/01/15 10:09:08;;;;;;;29.13;20.53;;;0.90;99.90;;;;;;5100175;28;20222;-89
2022/01/15 10:11:46;;;;;;;29.40;19.97;;;0.80;99.90;;;;;;5087595;28;20206;-89
2022/01/15 10:14:25;;;;;;;28.17;19.67;;;0.80;99.90;;;;;;5076305;28;20225;-89
2022/01/15 10:16:51;;;;;;;27.83;19.90;;;0.90;99.90;;;;;;5064010;28;20190;-90
2022/01/15 10:19:27;;;;;;;29.23;18.67;;;0.90;99.90;;;;;;5061122;28;20229;-90
2022/01/15 10:22:15;;;;;;;29.80;20.03;;;0.90;99.90;;;;;;5097889;28;20174;-90
2022/01/15 10:24:56;;;;;;;25.13;19.30;;;0.90;99.90;;;;;;5088958;28;20498;-90
2022/01/15 10:27:32;;;;;;;25.60;18.83;;;0.90;99.90;;;;;;5097786;28;20193;-90
2022/01/15 10:30:13;;;;;;;30.20;22.30;;;0.90;99.90;;;;;;5097316;28;20179;-89
2022/01/15 10:33:00;;;;;;;28.80;20.07;;;1.00;99.90;;;;;;5093994;28;20251;-89
2022/01/15 10:35:46;;;;;;;29.37;20.57;;;0.90;99.90;;;;;;5093461;28;20195;-90
2022/01/15 10:38:13;;;;;;;30.70;20.57;;;1.00;99.90;;;;;;5078128;28;20180;-89
2022/01/15 10:40:44;;;;;;;27.93;20.43;;;1.00;99.90;;;;;;5079152;28;20191;-89
2022/01/15 10:43:13;;;;;;;28.10;20.17;;;1.00;99.90;;;;;;5094401;28;20208;-89
2022/01/15 10:45:52;;;;;;;28.37;20.00;;;1.00;99.90;;;;;;5077493;28;20674;-89
2022/01/15 10:48:34;;;;;;;29.33;20.87;;;1.10;99.90;;;;;;5076744;28;20242;-89
2022/01/15 10:51:05;;;;;;;27.83;20.07;;;1.10;99.90;;;;;;5097300;28;20905;-89
2022/01/15 10:53:39;;;;;;;30.40;20.70;;;1.10;99.90;;;;;;5081888;28;20236;-88
2022/01/15 10:56:07;;;;;;;26.30;19.13;;;1.20;99.90;;;;;;5074238;28;20179;-89
2022/01/15 10:58:34;;;;;;;29.67;20.10;;;1.20;99.90;;;;;;5097561;28;20183;-89
2022/01/15 11:01:00;;;;;;;26.97;19.83;;;1.10;99.90;;;;;;5093890;28;20200;-89
2022/01/15 11:03:44;;;;;;;27.57;19.60;;;1.20;99.90;;;;;;5093579;28;20724;-88
2022/01/15 11:06:10;;;;;;;28.40;20.07;;;1.30;99.90;;;;;;5098472;28;20194;-89
2022/01/15 11:08:37;;;;;;;28.77;21.63;;;1.20;99.90;;;;;;5097199;28;20216;-88
2022/01/15 11:11:11;;;;;;;26.30;19.73;;;1.20;99.90;;;;;;5098208;28;20262;-89
2022/01/15 11:13:39;;;;;;;26.93;20.80;;;1.20;99.90;;;;;;5077697;28;20203;-90
2022/01/15 11:16:10;;;;;;;27.43;20.17;;;1.30;99.90;;;;;;5094724;28;20192;-89
2022/01/15 11:18:39;;;;;;;26.90;20.07;;;1.30;99.90;;;;;;5094634;28;20202;-88
2022/01/15 11:21:10;;;;;;;29.97;22.17;;;1.30;99.90;;;;;;5077289;28;20187;-89
2022/01/15 11:23:38;;;;;;;31.27;20.70;;;1.30;99.90;;;;;;5097229;28;20269;-89
2022/01/15 11:26:20;;;;;;;30.30;22.03;;;1.30;99.90;;;;;;5078360;27;20225;-89
2022/01/15 11:28:46;;;;;;;30.20;20.63;;;1.30;99.90;;;;;;5091859;28;20203;-89
2022/01/15 11:31:24;;;;;;;32.10;21.60;;;1.30;99.90;;;;;;5091504;28;20226;-90
2022/01/15 11:33:52;;;;;;;30.43;21.77;;;1.30;99.90;;;;;;5070341;28;20214;-89
2022/01/15 11:36:36;;;;;;;29.67;21.97;;;1.40;99.90;;;;;;5094388;28;20190;-89
2022/01/15 11:39:10;;;;;;;29.00;21.27;;;1.40;99.90;;;;;;5094383;28;20258;-89
2022/01/15 11:41:38;;;;;;;28.73;20.93;;;1.40;99.90;;;;;;5095385;28;20202;-89
2022/01/15 11:44:07;;;;;;;28.50;20.53;;;1.30;99.90;;;;;;5093550;28;20280;-89
2022/01/15 11:46:48;;;;;;;26.17;19.63;;;1.40;99.90;;;;;;5094683;28;20199;-89
2022/01/15 11:49:23;;;;;;;32.80;23.63;;;1.40;99.90;;;;;;5073613;28;20219;-90
2022/01/15 11:52:14;;;;;;;31.93;21.60;;;1.50;99.90;;;;;;5104225;27;20186;-89
2022/01/15 11:54:41;;;;;;;31.80;21.40;;;1.50;99.90;;;;;;5101498;28;20184;-90
2022/01/15 11:57:24;;;;;;;34.47;21.57;;;1.50;99.90;;;;;;5075906;28;20257;-89
2022/01/15 11:59:52;;;;;;;30.17;21.47;;;1.50;99.90;;;;;;5112561;27;20197;-90
2022/01/15 12:02:25;;;;;;;33.07;22.37;;;1.50;99.90;;;;;;5092096;28;20199;-91
2022/01/15 12:04:50;;;;;;;32.67;22.33;;;1.50;99.90;;;;;;5094815;28;20192;-89
2022/01/15 12:07:20;;;;;;;32.87;22.73;;;1.60;99.90;;;;;;5076145;28;20209;-89
2022/01/15 12:09:51;;;;;;;35.97;22.87;;;1.60;99.90;;;;;;5093639;28;20747;-88
2022/01/15 12:14:53;;;;;;;32.10;22.43;;;1.70;99.90;;;;;;5091735;28;20191;-89
2022/01/15 12:17:31;;;;;;;33.63;24.77;;;1.70;99.90;;;;;;5090378;28;20657;-88
2022/01/15 12:19:59;;;;;;;33.77;24.30;;;1.60;99.90;;;;;;5073773;28;20191;-90
2022/01/15 12:22:39;;;;;;;30.80;23.10;;;1.60;99.90;;;;;;5073483;28;20207;-89
2022/01/15 12:25:07;;;;;;;32.43;22.90;;;1.60;99.90;;;;;;5060476;28;20195;-90
2022/01/15 12:27:34;;;;;;;32.13;22.27;;;1.60;99.90;;;;;;5075850;28;20219;-90
2022/01/15 12:30:13;;;;;;;34.97;22.20;;;1.60;99.90;;;;;;5099152;28;20199;-89
2022/01/15 12:32:49;;;;;;;32.07;23.30;;;1.80;99.90;;;;;;5097298;28;20278;-89
2022/01/15 12:35:20;;;;;;;31.37;23.27;;;1.80;99.90;;;;;;5096577;28;20257;-90
2022/01/15 12:37:53;;;;;;;34.47;23.27;;;1.80;99.90;;;;;;5069264;28;20243;-90
2022/01/15 12:40:21;;;;;;;31.87;24.30;;;1.90;99.90;;;;;;5098785;28;20191;-90
2022/01/15 12:42:58;;;;;;;34.30;25.07;;;1.80;99.90;;;;;;5062671;28;20214;-90
2022/01/15 12:45:25;;;;;;;36.20;24.10;;;1.80;99.90;;;;;;5098619;28;20687;-90
2022/01/15 12:47:51;;;;;;;33.50;23.63;;;1.70;99.90;;;;;;5078654;28;20203;-90
2022/01/15 12:50:17;;;;;;;36.63;26.03;;;1.70;99.90;;;;;;5098074;28;20191;-89
2022/01/15 12:52:43;;;;;;;31.33;23.00;;;1.70;99.90;;;;;;5074364;28;20587;-90
2022/01/15 12:55:10;;;;;;;36.87;23.60;;;1.80;99.90;;;;;;5061602;28;20195;-90
2022/01/15 12:57:48;;;;;;;30.93;22.73;;;1.90;99.90;;;;;;5094234;28;20198;-89
2022/01/15 13:00:20;;;;;;;32.53;23.23;;;2.00;99.90;;;;;;5095074;28;20286;-89
2022/01/15 13:02:47;;;;;;;29.93;21.47;;;2.00;99.90;;;;;;5078661;28;20211;-89
2022/01/15 13:05:13;;;;;;;34.03;23.30;;;1.90;99.90;;;;;;5078243;28;20202;-91